createdAt,value
2022-08-16T00:02:31.072Z,12.47
2022-08-16T00:04:59.641Z,12.60
2022-08-16T00:07:29.293Z,12.63
2022-08-16T00:09:57.025Z,13.00
2022-08-16T00:12:24.642Z,12.60
2022-08-16T00:14:56.380Z,12.57
2022-08-16T00:17:24.132Z,12.93
2022-08-16T00:19:53.424Z,12.48
2022-08-16T00:22:25.098Z,12.18
2022-08-16T00:24:53.379Z,13.25
2022-08-16T00:27:21.576Z,12.83
2022-08-16T00:30:08.334Z,13.30
2022-08-16T00:32:39.140Z,14.32
2022-08-16T00:35:14.919Z,14.30
2022-08-16T00:37:58.650Z,15.90
2022-08-16T00:40:34.486Z,15.02
2022-08-16T00:43:12.030Z,16.08
2022-08-16T00:46:33.300Z,15.50
2022-08-16T00:49:06.828Z,15.30
2022-08-16T00:51:55.226Z,15.63
2022-08-16T00:54:23.963Z,16.05
2022-08-16T00:56:58.208Z,16.40
2022-08-16T00:59:29.254Z,16.65
2022-08-16T01:01:56.650Z,16.10
2022-08-16T01:04:30.056Z,16.23
2022-08-16T01:07:01.447Z,15.68
2022-08-16T01:09:33.578Z,15.43
2022-08-16T01:12:01.945Z,15.57
2022-08-16T01:14:31.441Z,15.88
2022-08-16T01:17:01.865Z,16.15
2022-08-16T01:19:35.914Z,16.05
2022-08-16T01:22:46.977Z,16.30
2022-08-16T01:25:34.608Z,15.70
2022-08-16T01:28:07.045Z,15.57
2022-08-16T01:30:40.186Z,15.68
2022-08-16T01:33:17.607Z,15.77
2022-08-16T01:35:52.613Z,15.53
2022-08-16T01:38:30.473Z,15.50
2022-08-16T01:41:02.568Z,14.60
2022-08-16T01:43:32.701Z,15.32
2022-08-16T01:46:29.342Z,15.20
2022-08-16T01:48:49.114Z,15.07
2022-08-16T01:51:17.555Z,14.77
2022-08-16T01:53:54.716Z,14.95
2022-08-16T01:56:25.195Z,15.40
2022-08-16T01:58:54.683Z,15.07
2022-08-16T02:01:22.128Z,14.82
2022-08-16T02:03:50.510Z,15.25
2022-08-16T02:06:33.814Z,14.60
2022-08-16T02:09:02.227Z,14.52
2022-08-16T02:11:47.303Z,14.45
2022-08-16T02:14:18.300Z,14.77
2022-08-16T02:16:51.539Z,15.07
2022-08-16T02:19:19.788Z,14.73
2022-08-16T02:22:09.248Z,14.95
2022-08-16T02:24:42.110Z,15.00
2022-08-16T02:27:13.276Z,14.93
2022-08-16T02:29:46.635Z,15.03
2022-08-16T02:32:50.837Z,15.48
2022-08-16T02:35:01.915Z,14.95
2022-08-16T02:37:51.294Z,15.00
2022-08-16T02:40:19.504Z,14.45
2022-08-16T02:42:49.743Z,14.18
2022-08-16T02:45:18.975Z,15.05
2022-08-16T02:48:00.323Z,14.68
2022-08-16T02:50:54.119Z,14.60
2022-08-16T02:53:23.359Z,14.77
2022-08-16T02:55:51.178Z,14.40
2022-08-16T02:58:26.060Z,14.45
2022-08-16T03:00:55.879Z,14.85
2022-08-16T03:04:39.241Z,14.63
2022-08-16T03:06:41.392Z,14.70
2022-08-16T03:09:11.832Z,14.90
2022-08-16T03:11:40.872Z,14.77
2022-08-16T03:14:08.488Z,15.10
2022-08-16T03:16:42.203Z,14.85
2022-08-16T03:19:25.851Z,14.85
2022-08-16T03:22:19.371Z,14.83
2022-08-16T03:25:01.843Z,16.23
2022-08-16T03:27:30.599Z,15.00
2022-08-16T03:29:58.653Z,15.27
2022-08-16T03:32:26.138Z,15.80
2022-08-16T03:34:53.505Z,16.05
2022-08-16T03:37:24.358Z,16.50
2022-08-16T03:39:56.499Z,16.05
2022-08-16T03:42:31.790Z,16.70
2022-08-16T03:45:04.809Z,16.77
2022-08-16T03:47:34.312Z,16.23
2022-08-16T03:50:03.034Z,17.00
2022-08-16T03:52:33.575Z,17.10
2022-08-16T03:55:02.542Z,16.77
2022-08-16T03:57:35.446Z,17.05
2022-08-16T04:00:35.224Z,17.42
2022-08-16T04:03:07.730Z,17.70
2022-08-16T04:05:39.520Z,18.07
2022-08-16T04:08:23.291Z,18.30
2022-08-16T04:10:51.950Z,17.42
2022-08-16T04:13:20.312Z,18.60
2022-08-16T04:15:48.120Z,18.97
2022-08-16T04:18:20.095Z,18.92
2022-08-16T04:20:49.810Z,19.60
2022-08-16T04:23:16.885Z,19.30
2022-08-16T04:25:47.026Z,20.17
2022-08-16T04:28:51.845Z,19.77
2022-08-16T04:31:10.674Z,20.52
2022-08-16T04:33:38.378Z,20.63
2022-08-16T04:36:20.008Z,20.33
2022-08-16T04:38:50.024Z,19.93
2022-08-16T04:41:17.351Z,21.15
2022-08-16T04:43:44.793Z,21.30
2022-08-16T04:46:29.962Z,20.90
2022-08-16T04:49:03.459Z,20.83
2022-08-16T04:51:35.780Z,21.77
2022-08-16T04:54:03.968Z,21.15
2022-08-16T04:56:31.032Z,21.57
2022-08-16T04:59:01.450Z,21.88
2022-08-16T05:01:55.268Z,21.85
2022-08-16T05:04:19.165Z,21.90
2022-08-16T05:06:46.973Z,21.57
2022-08-16T05:09:16.927Z,21.25
2022-08-16T05:11:44.111Z,20.83
2022-08-16T05:14:11.265Z,21.23
2022-08-16T05:16:47.651Z,21.23
2022-08-16T05:19:19.291Z,21.35
2022-08-16T05:21:46.453Z,21.45
2022-08-16T05:24:13.529Z,21.80
2022-08-16T05:26:43.011Z,21.58
2022-08-16T05:29:15.385Z,21.38
2022-08-16T05:31:44.273Z,20.67
2022-08-16T05:34:20.038Z,20.90
2022-08-16T05:36:57.089Z,21.65
2022-08-16T05:39:25.220Z,21.67
2022-08-16T05:41:53.556Z,21.63
2022-08-16T05:44:23.712Z,22.15
2022-08-16T05:46:53.277Z,21.97
2022-08-16T05:49:22.537Z,21.52
2022-08-16T05:51:51.848Z,22.48
2022-08-16T05:54:25.131Z,22.50
2022-08-16T05:56:52.912Z,22.30
2022-08-16T05:59:20.008Z,23.00
2022-08-16T06:01:52.829Z,22.17
2022-08-16T06:04:36.644Z,23.50
2022-08-16T06:07:07.099Z,24.30
2022-08-16T06:09:42.602Z,24.70
2022-08-16T06:12:12.861Z,24.93
2022-08-16T06:15:04.545Z,19.70
2022-08-16T06:17:42.637Z,21.80
2022-08-16T06:20:14.028Z,17.88
2022-08-16T06:22:41.098Z,18.75
2022-08-16T06:25:12.701Z,19.60
2022-08-16T06:27:42.202Z,23.08
2022-08-16T06:30:28.865Z,19.85
2022-08-16T06:32:56.199Z,18.65
2022-08-16T06:35:24.262Z,21.58
2022-08-16T06:37:52.562Z,18.30
2022-08-16T06:40:19.831Z,19.20
2022-08-16T06:42:48.446Z,17.85
2022-08-16T06:45:32.256Z,23.52
2022-08-16T06:48:02.322Z,18.77
2022-08-16T06:50:30.105Z,19.30
2022-08-16T06:53:06.774Z,18.85
2022-08-16T06:55:38.177Z,18.43
2022-08-16T06:58:08.512Z,20.70
2022-08-16T07:00:49.428Z,19.40
2022-08-16T07:03:28.111Z,21.40
2022-08-16T07:06:00.219Z,19.20
2022-08-16T07:08:28.509Z,23.20
2022-08-16T07:10:56.401Z,18.85
2022-08-16T07:14:03.806Z,22.13
2022-08-16T07:16:15.431Z,19.20
2022-08-16T07:19:01.651Z,18.27
2022-08-16T07:21:45.922Z,19.63
2022-08-16T07:24:30.632Z,19.08
2022-08-16T07:26:59.185Z,19.88
2022-08-16T07:29:35.566Z,19.17
2022-08-16T07:32:02.742Z,20.48
2022-08-16T07:34:35.360Z,18.23
2022-08-16T07:37:06.212Z,19.02
2022-08-16T07:39:33.947Z,18.60
2022-08-16T07:42:01.483Z,18.92
2022-08-16T07:44:50.453Z,23.13
2022-08-16T07:47:18.010Z,21.87
2022-08-16T07:49:53.141Z,20.00
2022-08-16T07:52:29.937Z,20.38
2022-08-16T07:54:59.387Z,18.70
2022-08-16T07:57:30.041Z,17.95
2022-08-16T07:59:57.520Z,17.27
2022-08-16T08:02:28.049Z,17.48
2022-08-16T08:04:58.589Z,18.60
2022-08-16T08:07:32.527Z,23.45
2022-08-16T08:09:59.799Z,18.30
2022-08-16T08:12:32.554Z,18.43
2022-08-16T08:15:04.140Z,22.48
2022-08-16T08:17:43.071Z,17.70
2022-08-16T08:20:12.833Z,20.23
2022-08-16T08:22:48.549Z,18.73
2022-08-16T08:25:18.253Z,23.10
2022-08-16T08:27:46.273Z,19.38
2022-08-16T08:30:50.412Z,18.77
2022-08-16T08:33:02.342Z,17.53
2022-08-16T08:35:30.034Z,20.00
2022-08-16T08:37:57.226Z,17.98
2022-08-16T08:40:26.691Z,18.90
2022-08-16T08:42:57.954Z,15.93
2022-08-16T08:45:47.844Z,15.82
2022-08-16T08:48:34.860Z,17.30
2022-08-16T08:51:05.343Z,15.85
2022-08-16T08:53:36.892Z,14.93
2022-08-16T08:56:23.448Z,15.70
2022-08-16T08:58:54.791Z,14.00
2022-08-16T09:01:36.659Z,15.60
2022-08-16T09:04:14.818Z,17.35
2022-08-16T09:07:02.246Z,18.30
2022-08-16T09:09:33.569Z,12.85
2022-08-16T09:12:05.952Z,14.00
2022-08-16T09:14:34.312Z,12.25
2022-08-16T09:17:14.037Z,12.18
2022-08-16T09:19:52.621Z,11.95
2022-08-16T09:22:25.911Z,11.75
2022-08-16T09:25:09.788Z,14.07
2022-08-16T09:27:46.633Z,10.88
2022-08-16T09:30:34.631Z,11.38
2022-08-16T09:33:13.909Z,9.70
2022-08-16T09:35:42.672Z,11.25
2022-08-16T09:38:31.564Z,9.80
2022-08-16T09:40:59.842Z,9.20
2022-08-16T09:44:00.521Z,9.30
2022-08-16T09:46:46.009Z,8.73
2022-08-16T09:49:03.647Z,8.30
2022-08-16T09:51:37.182Z,9.05
2022-08-16T09:54:05.697Z,8.05
2022-08-16T09:56:34.489Z,8.48
2022-08-16T09:59:04.907Z,9.37
2022-08-16T10:01:38.402Z,8.07
2022-08-16T10:04:30.327Z,8.27
2022-08-16T10:09:53.720Z,7.22
2022-08-16T10:12:34.709Z,9.02
2022-08-16T10:15:15.382Z,8.48
2022-08-16T10:17:43.537Z,8.02
2022-08-16T10:20:18.640Z,6.93
2022-08-16T10:22:46.184Z,8.27
2022-08-16T10:27:19.334Z,8.00
2022-08-16T10:28:27.649Z,8.70
2022-08-16T10:30:58.912Z,6.80
2022-08-16T10:33:33.502Z,6.38
2022-08-16T10:36:03.911Z,7.15
2022-08-16T10:38:33.134Z,6.40
2022-08-16T10:41:03.748Z,6.50
2022-08-16T10:49:21.567Z,6.97
2022-08-16T10:52:01.202Z,6.75
2022-08-16T10:54:32.231Z,7.47
2022-08-16T10:57:00.619Z,6.68
2022-08-16T10:59:45.944Z,6.25
2022-08-16T11:02:57.834Z,7.37
2022-08-16T11:05:20.997Z,6.40
2022-08-16T11:08:05.411Z,7.22
2022-08-16T11:11:06.760Z,6.18
2022-08-16T11:19:19.082Z,6.45
2022-08-16T11:24:43.147Z,5.60
2022-08-16T11:27:23.026Z,5.43
2022-08-16T11:29:55.257Z,5.83
2022-08-16T11:32:31.607Z,4.90
2022-08-16T11:35:09.831Z,4.97
2022-08-16T11:38:05.959Z,5.30
2022-08-16T11:40:32.415Z,5.00
2022-08-16T11:43:00.117Z,5.83
2022-08-16T11:45:27.264Z,4.70
2022-08-16T11:48:02.636Z,5.20
2022-08-16T11:50:33.184Z,5.05
2022-08-16T11:53:08.268Z,5.00
2022-08-16T11:55:37.967Z,5.80
2022-08-16T11:58:08.762Z,5.15
2022-08-16T12:00:51.305Z,4.50
2022-08-16T12:03:25.044Z,4.88
2022-08-16T12:06:03.017Z,4.55
2022-08-16T12:08:33.067Z,4.30
2022-08-16T12:11:05.624Z,4.30
2022-08-16T12:13:34.297Z,4.55
2022-08-16T12:16:02.727Z,4.80
2022-08-16T12:18:33.277Z,5.25
2022-08-16T12:21:04.189Z,5.07
2022-08-16T12:23:31.577Z,5.30
2022-08-16T12:25:59.667Z,4.80
2022-08-16T12:28:54.237Z,4.28
2022-08-16T12:31:18.051Z,4.53
2022-08-16T12:33:45.258Z,4.40
2022-08-16T12:36:15.111Z,4.68
2022-08-16T12:38:48.232Z,4.80
2022-08-16T12:41:25.022Z,4.60
2022-08-16T12:44:01.315Z,4.68
2022-08-16T12:46:32.057Z,4.47
2022-08-16T12:49:05.622Z,4.50
2022-08-16T12:51:59.092Z,4.90
2022-08-16T12:54:22.089Z,4.72
2022-08-16T12:56:56.209Z,5.45
2022-08-16T12:59:31.097Z,4.70
2022-08-16T13:02:02.774Z,4.55
2022-08-16T13:04:33.718Z,4.63
2022-08-16T13:07:04.796Z,4.50
2022-08-16T13:09:48.718Z,4.18
2022-08-16T13:12:23.499Z,4.28
2022-08-16T13:14:53.003Z,5.20
2022-08-16T13:17:22.455Z,5.00
2022-08-16T13:20:11.372Z,4.30
2022-08-16T13:22:44.108Z,4.45
2022-08-16T13:25:18.947Z,3.92
2022-08-16T13:28:01.652Z,3.83
2022-08-16T13:30:37.232Z,3.90
2022-08-16T13:33:12.235Z,3.40
2022-08-16T13:35:56.413Z,3.30
2022-08-16T13:38:26.887Z,3.67
2022-08-16T13:40:56.778Z,4.40
2022-08-16T13:43:36.414Z,4.10
2022-08-16T13:46:04.626Z,4.30
2022-08-16T13:51:04.137Z,4.10
2022-08-16T13:53:33.932Z,4.00
2022-08-16T13:56:01.040Z,5.33
2022-08-16T13:58:36.661Z,5.03
2022-08-16T14:01:17.066Z,4.77
2022-08-16T14:03:44.723Z,4.60
2022-08-16T14:06:13.192Z,4.60
2022-08-16T14:08:43.117Z,5.45
2022-08-16T14:11:14.490Z,4.85
2022-08-16T14:13:42.621Z,5.00
2022-08-16T14:16:12.532Z,4.82
2022-08-16T14:18:53.030Z,4.57
2022-08-16T14:21:23.854Z,4.60
2022-08-16T14:23:52.152Z,4.20
2022-08-16T14:26:21.183Z,4.90
2022-08-16T14:28:50.355Z,5.00
2022-08-16T14:31:21.375Z,5.07
2022-08-16T14:33:50.944Z,4.43
2022-08-16T14:36:18.784Z,4.20
2022-08-16T14:38:56.910Z,4.55
2022-08-16T14:41:30.771Z,4.22
2022-08-16T14:44:00.687Z,4.63
2022-08-16T14:46:28.004Z,4.50
2022-08-16T14:48:55.040Z,4.20
2022-08-16T14:51:23.108Z,4.07
2022-08-16T14:53:56.917Z,4.10
2022-08-16T14:56:38.254Z,4.53
2022-08-16T14:59:13.436Z,4.30
2022-08-16T15:01:57.440Z,4.47
2022-08-16T15:04:39.555Z,4.50
2022-08-16T15:07:12.941Z,4.25
2022-08-16T15:10:01.166Z,4.43
2022-08-16T15:12:31.020Z,4.18
2022-08-16T15:15:12.795Z,4.18
2022-08-16T15:17:54.052Z,4.22
2022-08-16T15:20:26.219Z,3.92
2022-08-16T15:22:57.204Z,3.95
2022-08-16T15:25:27.653Z,3.95
2022-08-16T15:27:56.952Z,3.80
2022-08-16T15:30:59.791Z,4.03
2022-08-16T15:33:15.250Z,4.10
2022-08-16T15:35:43.403Z,3.90
2022-08-16T15:38:55.179Z,3.88
2022-08-16T15:41:05.913Z,4.18
2022-08-16T15:43:39.794Z,4.20
2022-08-16T15:46:35.003Z,3.95
2022-08-16T15:49:18.137Z,4.38
2022-08-16T15:51:45.578Z,4.05
2022-08-16T15:54:29.456Z,4.03
2022-08-16T15:57:00.326Z,3.70
2022-08-16T15:59:34.783Z,3.80
2022-08-16T16:02:20.575Z,3.80
2022-08-16T16:04:55.363Z,4.00
2022-08-16T16:07:22.881Z,3.88
2022-08-16T16:09:53.351Z,3.80
2022-08-16T16:12:51.064Z,3.90
2022-08-16T16:15:08.002Z,3.80
2022-08-16T16:17:35.499Z,4.00
2022-08-16T16:20:14.496Z,3.88
2022-08-16T16:22:45.556Z,4.07
2022-08-16T16:25:15.907Z,3.92
2022-08-16T16:27:44.134Z,4.00
2022-08-16T16:30:38.222Z,3.88
2022-08-16T16:33:02.191Z,3.90
2022-08-16T16:35:32.875Z,4.00
2022-08-16T16:38:00.121Z,4.00
2022-08-16T16:40:33.320Z,4.13
2022-08-16T16:43:03.042Z,3.80
2022-08-16T16:45:36.465Z,3.80
2022-08-16T16:48:12.671Z,3.63
2022-08-16T16:50:54.349Z,3.63
2022-08-16T16:53:26.174Z,3.70
2022-08-16T16:55:58.984Z,3.70
2022-08-16T16:58:53.385Z,3.80
2022-08-16T17:01:35.190Z,3.80
2022-08-16T17:04:19.299Z,3.72
2022-08-16T17:06:53.494Z,3.77
2022-08-16T17:09:24.072Z,3.90
2022-08-16T17:11:55.434Z,3.70
2022-08-16T17:14:33.538Z,3.72
2022-08-16T17:17:02.353Z,3.85
2022-08-16T17:19:34.073Z,4.10
2022-08-16T17:22:07.796Z,3.97
2022-08-16T17:24:44.785Z,3.70
2022-08-16T17:27:12.336Z,3.47
2022-08-16T17:29:47.098Z,4.00
2022-08-16T17:32:34.033Z,3.60
2022-08-16T17:35:13.971Z,3.60
2022-08-16T17:37:54.348Z,3.63
2022-08-16T17:40:40.868Z,4.30
2022-08-16T17:43:13.289Z,3.78
2022-08-16T17:45:40.824Z,4.05
2022-08-16T17:48:08.263Z,3.75
2022-08-16T17:50:35.868Z,3.60
2022-08-16T17:53:03.222Z,4.38
2022-08-16T17:55:32.441Z,3.95
2022-08-16T17:57:59.658Z,4.25
2022-08-16T18:00:33.648Z,4.40
2022-08-16T18:03:01.644Z,4.47
2022-08-16T18:05:29.585Z,4.32
2022-08-16T18:07:56.989Z,3.88
2022-08-16T18:10:33.114Z,4.13
2022-08-16T18:13:03.688Z,4.13
2022-08-16T18:15:30.954Z,3.92
2022-08-16T18:17:58.061Z,4.18
2022-08-16T18:20:43.967Z,4.40
2022-08-16T18:23:13.891Z,4.00
2022-08-16T18:25:46.106Z,4.28
2022-08-16T18:28:14.726Z,4.75
2022-08-16T18:30:42.626Z,4.70
2022-08-16T18:33:17.116Z,4.60
2022-08-16T18:35:44.520Z,4.70
2022-08-16T18:38:16.434Z,4.60
2022-08-16T18:40:43.753Z,4.80
2022-08-16T18:43:14.608Z,4.65
2022-08-16T18:45:43.103Z,4.70
2022-08-16T18:48:13.740Z,4.73
2022-08-16T18:50:58.870Z,4.80
2022-08-16T18:53:32.700Z,4.70
2022-08-16T18:56:00.594Z,4.80
2022-08-16T18:58:31.846Z,5.00
2022-08-16T19:00:58.950Z,4.88
2022-08-16T19:03:31.148Z,4.43
2022-08-16T19:06:03.331Z,4.38
2022-08-16T19:08:31.536Z,4.45
2022-08-16T19:10:58.620Z,4.40
2022-08-16T19:13:26.685Z,4.75
2022-08-16T19:15:55.793Z,4.60
2022-08-16T19:18:22.960Z,4.82
2022-08-16T19:20:50.843Z,4.93
2022-08-16T19:23:22.137Z,4.88
2022-08-16T19:25:54.370Z,5.15
2022-08-16T19:28:51.910Z,5.30
2022-08-16T19:31:12.251Z,5.20
2022-08-16T19:33:40.019Z,5.40
2022-08-16T19:36:07.232Z,5.85
2022-08-16T19:38:39.093Z,5.75
2022-08-16T19:41:06.452Z,5.53
2022-08-16T19:43:50.469Z,5.85
2022-08-16T19:46:17.614Z,6.00
2022-08-16T19:48:45.092Z,5.88
2022-08-16T19:51:14.803Z,5.90
2022-08-16T19:53:41.888Z,6.65
2022-08-16T19:56:09.440Z,6.32
2022-08-16T19:58:36.772Z,6.50
2022-08-16T20:01:06.182Z,6.90
2022-08-16T20:03:34.622Z,7.10
2022-08-16T20:06:01.768Z,7.77
2022-08-16T20:08:29.176Z,8.35
2022-08-16T20:10:56.644Z,7.95
2022-08-16T20:13:24.943Z,7.93
2022-08-16T20:15:52.816Z,8.35
2022-08-16T20:18:24.573Z,9.23
2022-08-16T20:20:53.089Z,9.03
2022-08-16T20:23:24.527Z,9.00
2022-08-16T20:25:52.875Z,9.20
2022-08-16T20:28:52.625Z,9.73
2022-08-16T20:31:07.031Z,10.70
2022-08-16T20:33:34.084Z,11.07
2022-08-16T20:36:01.136Z,11.23
2022-08-16T20:38:29.539Z,12.57
2022-08-16T20:40:56.588Z,12.60
2022-08-16T20:43:23.629Z,14.07
2022-08-16T20:45:50.744Z,14.25
2022-08-16T20:48:17.825Z,15.05
2022-08-16T20:50:45.264Z,14.98
2022-08-16T20:53:14.443Z,16.25
2022-08-16T20:55:42.356Z,16.85
2022-08-16T20:58:09.458Z,18.17
2022-08-16T21:00:36.906Z,19.73
2022-08-16T21:03:12.212Z,20.23
2022-08-16T21:05:40.842Z,19.60
2022-08-16T21:08:26.738Z,20.33
2022-08-16T21:10:58.927Z,21.17
2022-08-16T21:13:30.590Z,22.50
2022-08-16T21:16:01.243Z,20.83
2022-08-16T21:18:30.885Z,21.90
2022-08-16T21:21:02.751Z,22.92
2022-08-16T21:23:30.031Z,22.77
2022-08-16T21:26:01.810Z,22.88
2022-08-16T21:28:41.500Z,23.87
2022-08-16T21:31:14.586Z,24.10
2022-08-16T21:33:43.411Z,23.88
2022-08-16T21:36:13.389Z,24.08
2022-08-16T21:38:40.669Z,23.70
2022-08-16T21:41:08.667Z,23.25
2022-08-16T21:43:35.721Z,24.63
2022-08-16T21:46:04.568Z,24.83
2022-08-16T21:48:36.123Z,25.55
2022-08-16T21:51:07.827Z,25.92
2022-08-16T21:53:35.175Z,24.05
2022-08-16T21:56:02.602Z,25.05
2022-08-16T21:58:35.577Z,23.83
2022-08-16T22:01:03.047Z,23.65
2022-08-16T22:03:33.736Z,27.23
2022-08-16T22:06:14.119Z,24.13
2022-08-16T22:08:50.383Z,30.42
2022-08-16T22:11:20.315Z,32.42
2022-08-16T22:13:57.277Z,25.73
2022-08-16T22:16:30.295Z,26.70
2022-08-16T22:18:57.484Z,27.30
2022-08-16T22:21:26.757Z,26.57
2022-08-16T22:23:58.429Z,26.75
2022-08-16T22:26:30.090Z,26.13
2022-08-16T22:28:58.720Z,26.02
2022-08-16T22:31:35.316Z,37.17
2022-08-16T22:34:09.842Z,37.60
2022-08-16T22:36:39.808Z,37.20
2022-08-16T22:39:08.622Z,37.13
2022-08-16T22:41:36.690Z,37.90
2022-08-16T22:44:08.130Z,38.97
2022-08-16T22:46:38.981Z,38.00
2022-08-16T22:49:06.735Z,39.20
2022-08-16T22:51:34.518Z,38.30
2022-08-16T22:54:40.955Z,38.20
2022-08-16T22:56:48.795Z,38.88
2022-08-16T22:59:15.863Z,39.23
2022-08-16T23:01:43.931Z,40.47
2022-08-16T23:04:11.041Z,39.25
2022-08-16T23:06:40.794Z,39.47
2022-08-16T23:09:10.654Z,39.23
2022-08-16T23:11:38.782Z,41.15
2022-08-16T23:14:05.836Z,38.67
2022-08-16T23:16:34.649Z,39.40
2022-08-16T23:19:07.921Z,39.63
2022-08-16T23:21:35.337Z,39.92
2022-08-16T23:24:07.960Z,40.83
2022-08-16T23:26:45.366Z,40.00
2022-08-16T23:29:24.974Z,41.00
2022-08-16T23:31:59.983Z,39.47
2022-08-16T23:34:27.804Z,40.78
2022-08-16T23:36:55.342Z,41.20
2022-08-16T23:39:22.544Z,41.72
2022-08-16T23:41:49.618Z,41.30
2022-08-16T23:44:42.363Z,39.85
2022-08-16T23:47:09.289Z,39.85
2022-08-16T23:49:55.925Z,40.17
2022-08-16T23:52:42.293Z,39.97
2022-08-16T23:55:10.866Z,39.33
2022-08-16T23:57:37.929Z,39.80
